Laurel, Florida
Current Conditions -  °F | °C
As of 11:35 AM on Wednesday 26 Nov 2014 (Local Time) from KVNC Reporting Station
Overcast Overcast  
Wind Chill: 15°   Ceiling: 11000
Heat Index: 15°   Visibility: 10mi
Dew Point: 13°   Wind: 7mph
Humidity: 88%   Direction: 360°N
Pressure: 30.18"   Gusts: NA
Location:  27.14°N, 82.46°W
Report Text: KVNC 261635Z AUTO 36006KT 10SM FEW029 OVC110 15/13 A3018 RMK AO2 TSNO
Loading
Personal Weather Stations






























Interactive Weather Map New forecast layout! Learn more

10-Day Weather Forecast

Advertisements
Track Severe Weather on mobile